createdAt,value
2022-10-17T00:01:18.271Z,87.56
2022-10-17T00:03:46.119Z,87.83
2022-10-17T00:06:16.039Z,88.83
2022-10-17T00:08:44.822Z,89.60
2022-10-17T00:11:24.706Z,90.03
2022-10-17T00:13:56.395Z,90.88
2022-10-17T00:20:21.570Z,91.07
2022-10-17T00:22:49.388Z,91.40
2022-10-17T00:25:17.686Z,92.00
2022-10-17T00:27:45.462Z,91.90
2022-10-17T00:30:16.862Z,92.23
2022-10-17T00:32:44.515Z,92.57
2022-10-17T00:35:12.047Z,92.69
2022-10-17T00:37:39.678Z,92.20
2022-10-17T00:40:08.032Z,93.15
2022-10-17T00:42:35.724Z,92.67
2022-10-17T00:45:25.046Z,93.56
2022-10-17T00:48:00.925Z,93.74
2022-10-17T00:50:29.000Z,93.57
2022-10-17T00:53:01.402Z,93.77
2022-10-17T00:55:33.154Z,93.69
2022-10-17T00:58:03.395Z,93.77
2022-10-17T01:00:31.150Z,93.55
2022-10-17T01:02:59.248Z,93.83
2022-10-17T01:05:26.808Z,93.51
2022-10-17T01:07:56.774Z,93.37
2022-10-17T01:10:30.554Z,94.32
2022-10-17T01:13:01.036Z,93.99
2022-10-17T01:16:24.327Z,93.76
2022-10-17T01:19:20.126Z,94.29
2022-10-17T01:22:01.690Z,94.13
2022-10-17T01:25:01.285Z,94.87
2022-10-17T01:28:00.004Z,95.04
2022-10-17T01:30:55.149Z,94.80
2022-10-17T01:33:58.164Z,94.99
2022-10-17T01:36:35.569Z,94.54
2022-10-17T01:39:14.626Z,94.39
2022-10-17T01:41:51.104Z,94.85
2022-10-17T01:44:21.995Z,95.03
2022-10-17T01:46:54.854Z,95.22
2022-10-17T01:49:26.991Z,95.40
2022-10-17T01:52:03.085Z,95.00
2022-10-17T01:54:48.312Z,94.77
2022-10-17T01:57:29.909Z,94.52
2022-10-17T01:59:58.148Z,95.14
2022-10-17T02:02:26.948Z,94.73
2022-10-17T02:04:57.435Z,95.33
2022-10-17T02:07:25.287Z,94.47
2022-10-17T02:09:53.618Z,94.79
2022-10-17T02:13:02.546Z,94.91
2022-10-17T02:15:40.420Z,94.40
2022-10-17T02:18:21.518Z,94.89
2022-10-17T02:20:55.725Z,95.04
2022-10-17T02:23:54.527Z,94.53
2022-10-17T02:26:35.623Z,94.57
2022-10-17T02:29:17.851Z,95.42
2022-10-17T02:31:58.561Z,94.50
2022-10-17T02:34:30.972Z,94.96
2022-10-17T02:37:02.141Z,94.63
2022-10-17T02:39:31.917Z,94.43
2022-10-17T02:42:02.349Z,94.82
2022-10-17T02:44:32.704Z,94.94
2022-10-17T02:47:12.760Z,94.82
2022-10-17T02:49:47.209Z,94.65
2022-10-17T02:52:22.598Z,95.07
2022-10-17T02:55:04.947Z,94.83
2022-10-17T02:58:11.506Z,94.76
2022-10-17T03:00:40.966Z,94.78
2022-10-17T03:03:27.045Z,94.78
2022-10-17T03:05:54.812Z,94.84
2022-10-17T03:08:25.295Z,94.44
2022-10-17T03:10:52.924Z,95.01
2022-10-17T03:13:21.826Z,95.14
2022-10-17T03:15:50.604Z,95.37
2022-10-17T03:18:18.161Z,95.23
2022-10-17T03:20:48.038Z,95.43
2022-10-17T03:23:15.859Z,94.79
2022-10-17T03:25:43.495Z,94.96
2022-10-17T03:28:14.327Z,95.44
2022-10-17T03:30:41.948Z,95.19
2022-10-17T03:33:09.787Z,95.06
2022-10-17T03:35:40.094Z,95.29
2022-10-17T03:38:09.064Z,94.82
2022-10-17T03:40:37.345Z,94.59
2022-10-17T03:43:05.244Z,94.98
2022-10-17T03:45:33.037Z,94.93
2022-10-17T03:48:00.621Z,94.90
2022-10-17T03:50:28.189Z,95.16
2022-10-17T03:52:56.594Z,94.85
2022-10-17T03:55:24.548Z,95.06
2022-10-17T03:57:52.165Z,94.73
2022-10-17T04:00:21.873Z,94.75
2022-10-17T04:02:55.738Z,94.84
2022-10-17T04:05:23.362Z,94.79
2022-10-17T04:07:50.899Z,94.46
2022-10-17T04:10:23.322Z,94.51
2022-10-17T04:12:51.619Z,94.93
2022-10-17T04:15:19.233Z,94.96
2022-10-17T04:17:48.655Z,94.81
2022-10-17T04:20:17.646Z,94.72
2022-10-17T04:22:45.256Z,94.76
2022-10-17T04:25:13.841Z,94.69
2022-10-17T04:27:44.756Z,94.37
2022-10-17T04:30:13.824Z,94.95
2022-10-17T04:32:43.076Z,94.90
2022-10-17T04:35:29.936Z,94.65
2022-10-17T04:38:03.052Z,94.58
2022-10-17T04:40:30.620Z,94.45
2022-10-17T04:43:00.246Z,95.19
2022-10-17T04:45:35.166Z,94.78
2022-10-17T04:48:04.759Z,94.98
2022-10-17T04:50:32.457Z,94.57
2022-10-17T04:53:32.707Z,95.08
2022-10-17T04:56:00.675Z,94.93
2022-10-17T04:58:30.391Z,95.09
2022-10-17T05:00:58.135Z,95.26
2022-10-17T05:03:29.195Z,95.32
2022-10-17T05:05:56.900Z,96.00
2022-10-17T05:08:24.643Z,95.65
2022-10-17T05:10:52.321Z,95.47
2022-10-17T05:13:20.113Z,95.64
2022-10-17T05:15:48.088Z,95.82
2022-10-17T05:18:16.629Z,95.54
2022-10-17T05:20:45.083Z,96.22
2022-10-17T05:23:13.031Z,95.93
2022-10-17T05:25:43.959Z,95.72
2022-10-17T05:28:12.334Z,95.65
2022-10-17T05:31:28.097Z,95.93
2022-10-17T05:33:57.638Z,95.30
2022-10-17T05:36:25.703Z,95.59
2022-10-17T05:38:59.052Z,95.07
2022-10-17T05:41:27.960Z,95.59
2022-10-17T05:43:55.865Z,95.16
2022-10-17T05:46:36.622Z,95.33
2022-10-17T05:49:14.671Z,95.24
2022-10-17T05:51:58.649Z,95.28
2022-10-17T05:54:27.815Z,95.84
2022-10-17T05:56:56.899Z,96.01
2022-10-17T05:59:28.756Z,96.07
2022-10-17T06:02:19.199Z,95.95
2022-10-17T06:04:49.510Z,96.80
2022-10-17T06:07:20.622Z,96.08
2022-10-17T06:09:49.882Z,95.87
2022-10-17T06:12:18.208Z,96.31
2022-10-17T06:18:01.032Z,96.37
2022-10-17T06:20:28.800Z,96.88
2022-10-17T06:22:56.448Z,96.47
2022-10-17T06:25:38.171Z,96.11
2022-10-17T06:28:06.222Z,95.96
2022-10-17T06:30:33.970Z,95.81
2022-10-17T06:33:02.184Z,96.10
2022-10-17T06:35:29.895Z,96.23
2022-10-17T06:37:58.226Z,95.63
2022-10-17T06:41:42.986Z,95.57
2022-10-17T06:48:49.101Z,95.40
2022-10-17T06:52:01.867Z,95.97
2022-10-17T06:58:14.333Z,96.37
2022-10-17T07:01:21.265Z,96.27
2022-10-17T07:03:55.554Z,95.86
2022-10-17T07:09:25.249Z,95.92
2022-10-17T07:11:56.682Z,95.72
2022-10-17T07:14:32.369Z,96.12
2022-10-17T07:20:16.529Z,96.27
2022-10-17T07:23:06.866Z,96.10
2022-10-17T07:25:40.051Z,95.57
2022-10-17T07:28:09.957Z,95.72
2022-10-17T07:30:38.845Z,95.43
2022-10-17T07:33:12.460Z,95.19
2022-10-17T07:35:41.079Z,94.69
2022-10-17T07:38:09.243Z,95.11
2022-10-17T07:40:36.907Z,94.69
2022-10-17T07:43:04.416Z,94.92
2022-10-17T07:45:32.269Z,95.03
2022-10-17T07:47:59.766Z,95.00
2022-10-17T07:50:27.694Z,95.07
2022-10-17T07:52:55.253Z,94.82
2022-10-17T07:55:22.806Z,94.48
2022-10-17T07:57:50.283Z,94.13
2022-10-17T08:00:17.870Z,94.15
2022-10-17T08:02:45.375Z,94.25
2022-10-17T08:05:12.850Z,93.83
2022-10-17T08:07:41.497Z,93.49
2022-10-17T08:10:12.737Z,93.95
2022-10-17T08:12:40.382Z,93.55
2022-10-17T08:15:08.779Z,93.17
2022-10-17T08:17:38.291Z,93.30
2022-10-17T08:20:06.793Z,93.01
2022-10-17T08:22:35.592Z,93.35
2022-10-17T08:25:03.221Z,93.06
2022-10-17T08:27:32.377Z,93.80
2022-10-17T08:30:00.500Z,93.58
2022-10-17T08:32:30.133Z,92.19
2022-10-17T08:34:57.851Z,91.84
2022-10-17T08:37:25.495Z,90.01
2022-10-17T08:39:53.039Z,90.55
2022-10-17T08:42:39.180Z,90.09
2022-10-17T08:45:27.024Z,89.30
2022-10-17T08:48:02.718Z,89.15
2022-10-17T08:50:42.581Z,90.12
2022-10-17T08:53:19.964Z,90.25
2022-10-17T08:55:50.545Z,90.44
2022-10-17T08:58:24.666Z,90.25
2022-10-17T09:04:51.441Z,89.95
2022-10-17T09:07:38.877Z,90.73
2022-10-17T09:10:27.768Z,89.37
2022-10-17T09:13:05.398Z,90.40
2022-10-17T09:15:53.508Z,90.01
2022-10-17T09:18:35.371Z,89.07
2022-10-17T09:21:24.282Z,90.21
2022-10-17T09:24:03.964Z,89.65
2022-10-17T09:26:40.492Z,91.18
2022-10-17T09:29:29.735Z,89.93
2022-10-17T09:32:11.393Z,91.13
2022-10-17T09:34:39.316Z,91.29
2022-10-17T09:37:13.505Z,87.90
2022-10-17T09:39:42.494Z,90.17
2022-10-17T09:42:14.558Z,88.52
2022-10-17T09:45:01.223Z,84.82
2022-10-17T09:47:41.530Z,85.41
2022-10-17T09:50:31.345Z,84.71
2022-10-17T09:53:22.409Z,84.57
2022-10-17T09:55:56.245Z,85.58
2022-10-17T09:58:24.406Z,80.73
2022-10-17T10:00:51.993Z,83.54
2022-10-17T10:03:25.493Z,80.02
2022-10-17T10:06:06.893Z,81.10
2022-10-17T10:08:38.080Z,80.01
2022-10-17T10:11:13.355Z,80.16
2022-10-17T10:13:42.816Z,74.27
2022-10-17T10:16:33.694Z,72.13
2022-10-17T10:19:03.700Z,76.04
2022-10-17T10:21:34.570Z,76.37
2022-10-17T10:24:14.998Z,69.31
2022-10-17T10:26:50.440Z,71.90
2022-10-17T10:29:52.734Z,66.26
2022-10-17T10:32:31.477Z,68.65
2022-10-17T10:35:01.317Z,68.03
2022-10-17T10:37:34.307Z,64.00
2022-10-17T10:40:06.268Z,66.85
2022-10-17T10:42:37.757Z,65.05
2022-10-17T10:45:43.276Z,64.62
2022-10-17T10:48:24.291Z,68.17
2022-10-17T10:50:54.615Z,66.54
2022-10-17T10:53:45.847Z,66.57
2022-10-17T10:56:37.213Z,69.04
2022-10-17T10:59:29.307Z,66.68
2022-10-17T11:02:12.647Z,68.70
2022-10-17T11:04:55.967Z,67.48
2022-10-17T11:07:29.658Z,71.88
2022-10-17T11:10:31.996Z,71.52
2022-10-17T11:13:10.671Z,74.41
2022-10-17T11:15:50.022Z,71.33
2022-10-17T11:18:43.172Z,71.10
2022-10-17T11:21:19.992Z,72.34
2022-10-17T11:24:12.431Z,70.38
2022-10-17T11:26:53.692Z,70.84
2022-10-17T11:29:26.243Z,72.80
2022-10-17T11:31:57.496Z,70.13
2022-10-17T11:34:32.462Z,72.93
2022-10-17T11:37:12.188Z,73.42
2022-10-17T11:39:49.718Z,75.49
2022-10-17T11:42:30.557Z,74.22
2022-10-17T11:45:09.592Z,75.42
2022-10-17T11:47:46.017Z,76.34
2022-10-17T11:53:17.060Z,77.04
2022-10-17T11:55:46.504Z,78.69
2022-10-17T11:58:14.131Z,79.74
2022-10-17T12:01:03.180Z,79.32
2022-10-17T12:03:35.967Z,80.70
2022-10-17T12:06:35.651Z,81.68
2022-10-17T12:09:37.212Z,81.31
2022-10-17T12:12:05.200Z,82.69
2022-10-17T12:14:46.702Z,83.38
2022-10-17T12:17:39.416Z,82.52
2022-10-17T12:20:25.791Z,83.07
2022-10-17T12:22:54.851Z,83.79
2022-10-17T12:25:32.162Z,84.41
2022-10-17T12:28:19.974Z,84.85
2022-10-17T12:31:05.701Z,85.34
2022-10-17T12:33:37.850Z,85.72
2022-10-17T12:36:17.501Z,85.68
2022-10-17T12:38:50.070Z,86.43
2022-10-17T12:41:40.633Z,85.78
2022-10-17T12:44:14.796Z,86.39
2022-10-17T12:46:51.303Z,87.08
2022-10-17T12:49:22.003Z,87.23
2022-10-17T12:52:11.259Z,87.51
2022-10-17T12:55:14.550Z,88.22
2022-10-17T12:58:00.409Z,88.16
2022-10-17T13:00:34.645Z,88.02
2022-10-17T13:03:11.560Z,88.00
2022-10-17T13:05:42.428Z,88.19
2022-10-17T13:08:18.250Z,87.98
2022-10-17T13:10:51.607Z,87.75
2022-10-17T13:13:39.211Z,87.71
2022-10-17T13:16:07.100Z,87.70
2022-10-17T13:18:34.655Z,87.33
2022-10-17T13:21:06.301Z,86.65
2022-10-17T13:23:38.018Z,85.85
2022-10-17T13:26:21.598Z,84.70
2022-10-17T13:29:05.886Z,84.68
2022-10-17T13:31:36.170Z,84.37
2022-10-17T13:34:06.682Z,83.63
2022-10-17T13:36:35.601Z,84.43
2022-10-17T13:39:13.699Z,83.36
2022-10-17T13:41:43.008Z,82.40
2022-10-17T13:44:18.015Z,82.17
2022-10-17T13:46:46.265Z,82.01
2022-10-17T13:49:40.607Z,80.86
2022-10-17T13:52:21.596Z,82.14
2022-10-17T13:54:51.261Z,80.86
2022-10-17T13:57:27.473Z,81.46
2022-10-17T14:00:01.779Z,82.19
2022-10-17T14:02:41.648Z,82.50
2022-10-17T14:05:18.220Z,82.98
2022-10-17T14:08:20.459Z,82.68
2022-10-17T14:10:48.164Z,81.83
2022-10-17T14:13:27.946Z,80.14
2022-10-17T14:15:59.422Z,80.79
2022-10-17T14:18:36.663Z,80.42
2022-10-17T14:24:21.082Z,79.57
2022-10-17T14:26:50.889Z,80.10
2022-10-17T14:29:30.777Z,79.18
2022-10-17T14:32:06.233Z,79.31
2022-10-17T14:34:37.128Z,80.14
2022-10-17T14:37:38.480Z,79.43
2022-10-17T14:40:07.217Z,77.50
2022-10-17T14:42:40.483Z,76.46
2022-10-17T14:45:15.159Z,75.36
2022-10-17T14:47:44.131Z,77.76
2022-10-17T14:50:11.883Z,77.38
2022-10-17T14:52:40.408Z,77.40
2022-10-17T14:55:26.112Z,78.74
2022-10-17T14:57:53.635Z,78.07
2022-10-17T15:00:23.269Z,78.40
2022-10-17T15:02:52.453Z,76.93
2022-10-17T15:05:20.568Z,76.11
2022-10-17T15:07:48.047Z,75.89
2022-10-17T15:10:27.632Z,75.19
2022-10-17T15:12:58.794Z,74.61
2022-10-17T15:15:29.511Z,75.72
2022-10-17T15:17:57.370Z,76.47
2022-10-17T15:20:27.960Z,77.11
2022-10-17T15:23:01.807Z,77.56
2022-10-17T15:25:31.309Z,77.24
2022-10-17T15:27:58.924Z,78.01
2022-10-17T15:30:29.819Z,77.74
2022-10-17T15:32:58.573Z,78.92
2022-10-17T15:35:27.454Z,80.23
2022-10-17T15:37:55.374Z,80.20
2022-10-17T15:40:29.218Z,80.75
2022-10-17T15:42:57.255Z,80.98
2022-10-17T15:45:24.918Z,81.39
2022-10-17T15:47:55.903Z,81.75
2022-10-17T15:50:23.514Z,82.15
2022-10-17T15:52:51.181Z,82.02
2022-10-17T15:55:19.386Z,81.82
2022-10-17T15:57:48.968Z,81.75
2022-10-17T16:00:22.632Z,81.76
2022-10-17T16:02:51.064Z,82.01
2022-10-17T16:05:25.655Z,81.76
2022-10-17T16:07:54.133Z,81.01
2022-10-17T16:10:22.743Z,81.34
2022-10-17T16:12:50.681Z,81.66
2022-10-17T16:15:23.797Z,82.39
2022-10-17T16:17:53.019Z,82.73
2022-10-17T16:20:21.420Z,82.91
2022-10-17T16:22:49.771Z,82.70
2022-10-17T16:25:19.609Z,83.33
2022-10-17T16:27:48.651Z,83.53
2022-10-17T16:30:16.583Z,83.14
2022-10-17T16:32:44.312Z,83.24
2022-10-17T16:35:18.084Z,83.46
2022-10-17T16:37:45.611Z,83.60
2022-10-17T16:40:13.758Z,83.96
2022-10-17T16:42:41.422Z,84.00
2022-10-17T16:45:18.274Z,84.74
2022-10-17T16:47:46.985Z,85.01
2022-10-17T16:50:15.416Z,85.30
2022-10-17T16:52:42.957Z,85.57
2022-10-17T16:55:10.988Z,86.04
2022-10-17T16:57:38.581Z,86.05
2022-10-17T17:00:07.454Z,86.23
2022-10-17T17:02:35.558Z,86.40
2022-10-17T17:05:03.358Z,86.30
2022-10-17T17:07:31.091Z,86.60
2022-10-17T17:09:58.788Z,87.10
2022-10-17T17:12:26.332Z,86.89
2022-10-17T17:14:53.806Z,86.98
2022-10-17T17:17:30.627Z,87.41
2022-10-17T17:20:05.254Z,87.74
2022-10-17T17:22:32.827Z,87.45
2022-10-17T17:25:00.374Z,87.17
2022-10-17T17:27:29.260Z,87.17
2022-10-17T17:29:57.000Z,87.04
2022-10-17T17:32:24.520Z,87.02
2022-10-17T17:34:52.050Z,87.08
2022-10-17T17:37:19.561Z,87.23
2022-10-17T17:39:47.078Z,87.21
2022-10-17T17:42:14.521Z,87.43
2022-10-17T17:44:42.157Z,87.42
2022-10-17T17:47:09.628Z,87.83
2022-10-17T17:49:37.132Z,87.66
2022-10-17T17:52:04.937Z,87.96
2022-10-17T17:54:33.589Z,87.77
2022-10-17T17:57:02.512Z,87.61
2022-10-17T17:59:31.332Z,87.52
2022-10-17T18:01:59.007Z,87.43
2022-10-17T18:04:28.229Z,87.41
2022-10-17T18:06:56.230Z,87.49
2022-10-17T18:09:24.055Z,87.45
2022-10-17T18:11:51.626Z,87.49
2022-10-17T18:14:23.809Z,87.49
2022-10-17T18:16:52.569Z,87.49
2022-10-17T18:19:20.197Z,87.19
2022-10-17T18:21:48.894Z,87.14
2022-10-17T18:24:16.428Z,87.17
2022-10-17T18:26:44.048Z,86.96
2022-10-17T18:29:12.897Z,86.93
2022-10-17T18:31:40.621Z,87.02
2022-10-17T18:34:08.104Z,86.93
2022-10-17T18:36:37.311Z,86.64
2022-10-17T18:39:05.689Z,86.67
2022-10-17T18:41:33.778Z,86.52
2022-10-17T18:44:03.039Z,86.11
2022-10-17T18:46:36.168Z,86.05
2022-10-17T18:49:03.772Z,85.51
2022-10-17T18:51:31.256Z,85.34
2022-10-17T18:53:58.867Z,85.00
2022-10-17T18:56:26.993Z,84.70
2022-10-17T18:58:55.429Z,84.55
2022-10-17T19:01:25.834Z,84.17
2022-10-17T19:03:55.783Z,83.88
2022-10-17T19:06:31.679Z,83.58
2022-10-17T19:09:01.333Z,83.17
2022-10-17T19:11:30.616Z,82.65
2022-10-17T19:14:00.198Z,82.76
2022-10-17T19:16:30.786Z,82.05
2022-10-17T19:19:17.941Z,82.24
2022-10-17T19:21:45.988Z,82.28
2022-10-17T19:24:20.805Z,82.22
2022-10-17T19:26:50.825Z,82.27
2022-10-17T19:29:18.503Z,82.48
2022-10-17T19:31:47.663Z,82.52
2022-10-17T19:34:16.333Z,82.52
2022-10-17T19:36:44.770Z,82.42
2022-10-17T19:39:15.496Z,82.40
2022-10-17T19:41:44.863Z,82.24
2022-10-17T19:44:13.065Z,82.39
2022-10-17T19:46:41.005Z,82.51
2022-10-17T19:49:08.585Z,82.65
2022-10-17T19:51:36.153Z,82.40
2022-10-17T19:54:03.913Z,82.56
2022-10-17T19:56:36.774Z,82.70
2022-10-17T19:59:08.495Z,82.49
2022-10-17T20:01:39.083Z,82.52
2022-10-17T20:04:08.832Z,82.50
2022-10-17T20:06:36.683Z,82.49
2022-10-17T20:09:06.017Z,82.68
2022-10-17T20:11:33.810Z,82.61
2022-10-17T20:14:02.033Z,82.87
2022-10-17T20:16:32.375Z,83.06
2022-10-17T20:19:11.571Z,83.26
2022-10-17T20:21:42.420Z,83.47
2022-10-17T20:24:14.125Z,83.86
2022-10-17T20:26:41.973Z,83.61
2022-10-17T20:29:18.904Z,83.34
2022-10-17T20:31:47.192Z,83.39
2022-10-17T20:34:16.618Z,83.72
2022-10-17T20:36:44.279Z,83.33
2022-10-17T20:39:13.728Z,83.55
2022-10-17T20:41:42.086Z,83.49
2022-10-17T20:44:10.523Z,83.38
2022-10-17T20:46:44.681Z,83.31
2022-10-17T20:49:18.308Z,82.90
2022-10-17T20:51:46.475Z,83.11
2022-10-17T20:54:13.974Z,82.82
2022-10-17T20:56:41.680Z,82.86
2022-10-17T20:59:16.396Z,82.74
2022-10-17T21:01:45.310Z,83.08
2022-10-17T21:04:44.060Z,82.87
2022-10-17T21:07:01.331Z,82.98
2022-10-17T21:09:28.920Z,82.55
2022-10-17T21:11:57.061Z,82.46
2022-10-17T21:14:25.626Z,82.45
2022-10-17T21:16:53.324Z,82.86
2022-10-17T21:19:21.887Z,82.53
2022-10-17T21:21:50.082Z,82.39
2022-10-17T21:24:20.678Z,82.75
2022-10-17T21:26:53.567Z,83.14
2022-10-17T21:29:22.484Z,82.91
2022-10-17T21:31:50.647Z,83.16
2022-10-17T21:34:24.698Z,83.07
2022-10-17T21:36:52.621Z,83.21
2022-10-17T21:39:20.289Z,83.12
2022-10-17T21:41:47.892Z,83.13
2022-10-17T21:44:24.316Z,83.04
2022-10-17T21:46:53.044Z,83.35
2022-10-17T21:49:22.758Z,83.78
2022-10-17T21:51:51.706Z,83.86
2022-10-17T21:54:20.702Z,83.44
2022-10-17T21:56:48.663Z,83.65
2022-10-17T21:59:16.719Z,83.39
2022-10-17T22:01:45.681Z,83.38
2022-10-17T22:04:16.464Z,83.15
2022-10-17T22:06:45.983Z,83.82
2022-10-17T22:09:21.497Z,83.37
2022-10-17T22:11:51.835Z,83.36
2022-10-17T22:14:21.111Z,83.74
2022-10-17T22:16:49.741Z,83.65
2022-10-17T22:19:20.832Z,84.00
2022-10-17T22:21:48.831Z,84.01
2022-10-17T22:24:18.133Z,83.69
2022-10-17T22:26:46.669Z,83.56
2022-10-17T22:29:14.344Z,83.60
2022-10-17T22:31:42.115Z,83.98
2022-10-17T22:34:11.905Z,83.77
2022-10-17T22:36:39.431Z,84.26
2022-10-17T22:39:07.512Z,83.75
2022-10-17T22:41:35.289Z,84.00
2022-10-17T22:44:03.243Z,83.73
2022-10-17T22:46:30.892Z,84.47
2022-10-17T22:48:58.362Z,84.39
2022-10-17T22:51:26.243Z,84.83
2022-10-17T22:53:53.775Z,85.02
2022-10-17T22:56:22.915Z,84.35
2022-10-17T22:58:50.974Z,84.99
2022-10-17T23:01:22.332Z,84.68
2022-10-17T23:03:51.007Z,85.18
2022-10-17T23:06:18.908Z,84.88
2022-10-17T23:08:46.956Z,85.32
2022-10-17T23:11:14.546Z,85.40
2022-10-17T23:13:42.255Z,85.22
2022-10-17T23:16:10.067Z,85.46
2022-10-17T23:18:38.532Z,85.88
2022-10-17T23:21:06.311Z,86.14
2022-10-17T23:23:34.315Z,86.04
2022-10-17T23:26:07.172Z,86.15
2022-10-17T23:28:35.781Z,86.27
2022-10-17T23:31:19.546Z,86.23
2022-10-17T23:33:49.330Z,87.01
2022-10-17T23:36:19.811Z,86.38
2022-10-17T23:38:48.191Z,87.30
2022-10-17T23:41:16.366Z,87.03
2022-10-17T23:43:44.279Z,87.56
2022-10-17T23:46:12.059Z,86.55
2022-10-17T23:48:40.309Z,87.08
2022-10-17T23:51:09.238Z,86.87
2022-10-17T23:53:37.886Z,86.82
2022-10-17T23:56:06.718Z,87.53
2022-10-17T23:58:34.760Z,87.08
